sensor_id;sensor_type;location;lat;lon;timestamp;P1;durP1;ratioP1;P2;durP2;ratioP2
5416;SDS011;2731;50.754;12.990;2023-10-09T05:50:44;16.65;;;9.25;;
5416;SDS011;2731;50.754;12.990;2023-10-09T05:53:30;21.40;;;9.75;;
5416;SDS011;2731;50.754;12.990;2023-10-09T05:56:23;21.55;;;8.98;;
5416;SDS011;2731;50.754;12.990;2023-10-09T05:59:08;18.15;;;8.48;;
5416;SDS011;2731;50.754;12.990;2023-10-09T06:01:57;20.73;;;10.27;;
5416;SDS011;2731;50.754;12.990;2023-10-09T06:04:33;14.05;;;8.32;;
5416;SDS011;2731;50.754;12.990;2023-10-09T06:07:21;18.02;;;9.15;;
5416;SDS011;2731;50.754;12.990;2023-10-09T06:10:16;17.15;;;9.27;;
5416;SDS011;2731;50.754;12.990;2023-10-09T06:13:06;18.48;;;9.20;;
5416;SDS011;2731;50.754;12.990;2023-10-09T06:15:54;20.90;;;9.80;;
5416;SDS011;2731;50.754;12.990;2023-10-09T06:18:46;15.95;;;7.63;;
5416;SDS011;2731;50.754;12.990;2023-10-09T06:21:35;18.40;;;8.57;;
5416;SDS011;2731;50.754;12.990;2023-10-09T06:24:31;15.10;;;8.02;;
5416;SDS011;2731;50.754;12.990;2023-10-09T06:27:38;14.02;;;8.02;;
5416;SDS011;2731;50.754;12.990;2023-10-09T06:30:11;14.50;;;9.05;;
5416;SDS011;2731;50.754;12.990;2023-10-09T06:32:46;15.75;;;8.80;;
5416;SDS011;2731;50.754;12.990;2023-10-09T06:35:35;18.02;;;9.38;;
5416;SDS011;2731;50.754;12.990;2023-10-09T06:38:06;17.67;;;8.00;;
5416;SDS011;2731;50.754;12.990;2023-10-09T06:40:50;13.88;;;7.38;;
5416;SDS011;2731;50.754;12.990;2023-10-09T06:43:35;17.67;;;8.38;;
5416;SDS011;2731;50.754;12.990;2023-10-09T06:46:36;16.85;;;9.48;;
5416;SDS011;2731;50.754;12.990;2023-10-09T06:49:42;18.42;;;8.90;;
5416;SDS011;2731;50.754;12.990;2023-10-09T06:52:34;18.35;;;8.35;;
5416;SDS011;2731;50.754;12.990;2023-10-09T06:55:19;16.42;;;10.77;;
5416;SDS011;2731;50.754;12.990;2023-10-09T06:58:07;18.95;;;10.85;;
5416;SDS011;2731;50.754;12.990;2023-10-09T07:00:41;23.55;;;10.23;;
5416;SDS011;2731;50.754;12.990;2023-10-09T07:03:47;18.05;;;11.05;;
5416;SDS011;2731;50.754;12.990;2023-10-09T07:06:38;18.50;;;11.77;;
5416;SDS011;2731;50.754;12.990;2023-10-09T07:09:05;23.25;;;11.95;;
5416;SDS011;2731;50.754;12.990;2023-10-09T07:11:48;18.95;;;11.20;;
5416;SDS011;2731;50.754;12.990;2023-10-09T07:14:18;21.70;;;10.45;;
5416;SDS011;2731;50.754;12.990;2023-10-09T07:17:05;15.48;;;8.90;;
5416;SDS011;2731;50.754;12.990;2023-10-09T07:20:02;17.88;;;9.30;;
5416;SDS011;2731;50.754;12.990;2023-10-09T07:22:44;14.00;;;9.40;;
5416;SDS011;2731;50.754;12.990;2023-10-09T07:25:22;19.80;;;11.30;;
5416;SDS011;2731;50.754;12.990;2023-10-09T07:28:22;20.08;;;10.93;;
5416;SDS011;2731;50.754;12.990;2023-10-09T07:31:16;18.13;;;10.75;;
5416;SDS011;2731;50.754;12.990;2023-10-09T07:34:21;20.98;;;10.93;;
5416;SDS011;2731;50.754;12.990;2023-10-09T07:37:35;19.13;;;11.10;;
5416;SDS011;2731;50.754;12.990;2023-10-09T07:40:21;19.73;;;10.57;;
5416;SDS011;2731;50.754;12.990;2023-10-09T07:43:30;22.30;;;10.77;;
5416;SDS011;2731;50.754;12.990;2023-10-09T07:52:56;21.40;;;10.55;;
5416;SDS011;2731;50.754;12.990;2023-10-09T07:55:44;24.05;;;10.77;;
5416;SDS011;2731;50.754;12.990;2023-10-09T07:58:40;17.30;;;9.77;;
5416;SDS011;2731;50.754;12.990;2023-10-09T08:01:14;17.10;;;8.68;;
5416;SDS011;2731;50.754;12.990;2023-10-09T08:04:19;17.73;;;7.90;;
5416;SDS011;2731;50.754;12.990;2023-10-09T08:07:10;37.88;;;22.90;;
5416;SDS011;2731;50.754;12.990;2023-10-09T08:09:52;20.08;;;10.98;;
5416;SDS011;2731;50.754;12.990;2023-10-09T08:12:42;15.43;;;9.80;;
5416;SDS011;2731;50.754;12.990;2023-10-09T08:15:25;15.40;;;8.85;;
5416;SDS011;2731;50.754;12.990;2023-10-09T08:18:35;16.83;;;9.30;;
5416;SDS011;2731;50.754;12.990;2023-10-09T08:21:29;14.10;;;9.57;;
5416;SDS011;2731;50.754;12.990;2023-10-09T08:24:46;18.20;;;9.38;;
5416;SDS011;2731;50.754;12.990;2023-10-09T08:27:45;16.17;;;9.20;;
5416;SDS011;2731;50.754;12.990;2023-10-09T08:30:38;16.95;;;8.32;;
5416;SDS011;2731;50.754;12.990;2023-10-09T08:33:36;16.88;;;8.70;;
5416;SDS011;2731;50.754;12.990;2023-10-09T08:36:29;16.15;;;8.88;;
5416;SDS011;2731;50.754;12.990;2023-10-09T08:39:02;15.77;;;9.38;;
5416;SDS011;2731;50.754;12.990;2023-10-09T08:42:22;14.93;;;8.40;;
5416;SDS011;2731;50.754;12.990;2023-10-09T08:45:10;15.75;;;9.50;;
5416;SDS011;2731;50.754;12.990;2023-10-09T08:48:07;16.15;;;8.70;;
5416;SDS011;2731;50.754;12.990;2023-10-09T08:50:55;14.77;;;8.18;;
5416;SDS011;2731;50.754;12.990;2023-10-09T08:53:51;17.58;;;8.25;;
5416;SDS011;2731;50.754;12.990;2023-10-09T08:56:19;12.98;;;8.75;;
5416;SDS011;2731;50.754;12.990;2023-10-09T08:58:59;17.38;;;9.05;;
5416;SDS011;2731;50.754;12.990;2023-10-09T09:01:30;13.38;;;8.10;;
5416;SDS011;2731;50.754;12.990;2023-10-09T09:04:38;17.33;;;9.82;;
5416;SDS011;2731;50.754;12.990;2023-10-09T09:07:28;11.13;;;8.10;;
5416;SDS011;2731;50.754;12.990;2023-10-09T09:10:38;17.25;;;8.27;;
5416;SDS011;2731;50.754;12.990;2023-10-09T09:13:30;16.30;;;8.98;;
5416;SDS011;2731;50.754;12.990;2023-10-09T09:16:23;18.73;;;9.35;;
5416;SDS011;2731;50.754;12.990;2023-10-09T09:19:15;18.85;;;8.63;;
5416;SDS011;2731;50.754;12.990;2023-10-09T09:22:01;14.27;;;8.32;;
5416;SDS011;2731;50.754;12.990;2023-10-09T09:24:59;14.20;;;7.78;;
5416;SDS011;2731;50.754;12.990;2023-10-09T09:27:47;17.08;;;9.63;;
5416;SDS011;2731;50.754;12.990;2023-10-09T09:32:50;14.38;;;8.20;;
5416;SDS011;2731;50.754;12.990;2023-10-09T09:36:00;14.85;;;7.68;;
5416;SDS011;2731;50.754;12.990;2023-10-09T09:38:31;14.00;;;7.63;;
5416;SDS011;2731;50.754;12.990;2023-10-09T09:41:19;14.32;;;9.18;;
5416;SDS011;2731;50.754;12.990;2023-10-09T09:43:54;14.93;;;8.40;;
5416;SDS011;2731;50.754;12.990;2023-10-09T09:46:50;14.65;;;8.82;;
5416;SDS011;2731;50.754;12.990;2023-10-09T09:49:18;13.90;;;7.65;;
5416;SDS011;2731;50.754;12.990;2023-10-09T09:51:47;13.52;;;7.78;;
5416;SDS011;2731;50.754;12.990;2023-10-09T09:54:14;13.38;;;8.00;;
5416;SDS011;2731;50.754;12.990;2023-10-09T09:56:44;14.02;;;8.75;;
5416;SDS011;2731;50.754;12.990;2023-10-09T09:59:17;15.77;;;7.38;;
5416;SDS011;2731;50.754;12.990;2023-10-09T10:02:10;14.88;;;8.10;;
5416;SDS011;2731;50.754;12.990;2023-10-09T10:04:45;15.25;;;7.47;;
5416;SDS011;2731;50.754;12.990;2023-10-09T10:07:16;14.80;;;8.00;;
5416;SDS011;2731;50.754;12.990;2023-10-09T10:09:46;16.70;;;8.90;;
5416;SDS011;2731;50.754;12.990;2023-10-09T10:15:00;13.35;;;8.32;;
5416;SDS011;2731;50.754;12.990;2023-10-09T10:23:40;13.20;;;7.10;;
5416;SDS011;2731;50.754;12.990;2023-10-09T10:26:22;14.18;;;8.02;;
5416;SDS011;2731;50.754;12.990;2023-10-09T10:29:21;14.40;;;7.13;;
5416;SDS011;2731;50.754;12.990;2023-10-09T10:32:11;15.70;;;7.93;;
5416;SDS011;2731;50.754;12.990;2023-10-09T10:34:59;16.60;;;7.93;;
5416;SDS011;2731;50.754;12.990;2023-10-09T10:37:40;13.60;;;7.40;;
5416;SDS011;2731;50.754;12.990;2023-10-09T10:40:26;14.07;;;8.30;;
5416;SDS011;2731;50.754;12.990;2023-10-09T10:43:18;10.68;;;6.28;;
5416;SDS011;2731;50.754;12.990;2023-10-09T10:46:12;14.20;;;7.75;;
5416;SDS011;2731;50.754;12.990;2023-10-09T10:49:05;16.25;;;8.70;;
5416;SDS011;2731;50.754;12.990;2023-10-09T10:51:42;16.25;;;9.52;;
5416;SDS011;2731;50.754;12.990;2023-10-09T10:54:26;15.27;;;8.25;;
5416;SDS011;2731;50.754;12.990;2023-10-09T10:57:02;12.90;;;7.72;;
5416;SDS011;2731;50.754;12.990;2023-10-09T10:59:30;16.88;;;9.50;;
5416;SDS011;2731;50.754;12.990;2023-10-09T11:04:41;17.67;;;9.85;;
5416;SDS011;2731;50.754;12.990;2023-10-09T11:07:09;14.73;;;8.35;;
5416;SDS011;2731;50.754;12.990;2023-10-09T11:09:47;14.10;;;8.20;;
5416;SDS011;2731;50.754;12.990;2023-10-09T11:12:30;14.68;;;9.27;;
5416;SDS011;2731;50.754;12.990;2023-10-09T11:15:16;13.95;;;7.75;;
5416;SDS011;2731;50.754;12.990;2023-10-09T11:18:08;11.88;;;7.85;;
5416;SDS011;2731;50.754;12.990;2023-10-09T11:20:41;15.48;;;8.13;;
5416;SDS011;2731;50.754;12.990;2023-10-09T11:23:21;13.93;;;8.13;;
5416;SDS011;2731;50.754;12.990;2023-10-09T11:26:14;13.88;;;7.78;;
5416;SDS011;2731;50.754;12.990;2023-10-09T11:29:08;13.05;;;7.25;;
5416;SDS011;2731;50.754;12.990;2023-10-09T11:34:30;15.63;;;6.93;;
5416;SDS011;2731;50.754;12.990;2023-10-09T11:37:01;20.95;;;10.65;;
5416;SDS011;2731;50.754;12.990;2023-10-09T11:39:41;12.10;;;6.95;;
5416;SDS011;2731;50.754;12.990;2023-10-09T11:42:22;16.55;;;7.15;;
5416;SDS011;2731;50.754;12.990;2023-10-09T11:45:25;11.48;;;6.63;;
5416;SDS011;2731;50.754;12.990;2023-10-09T11:47:58;16.10;;;7.70;;
5416;SDS011;2731;50.754;12.990;2023-10-09T11:50:44;14.77;;;7.55;;
5416;SDS011;2731;50.754;12.990;2023-10-09T11:53:45;11.98;;;6.80;;
5416;SDS011;2731;50.754;12.990;2023-10-09T11:56:25;13.27;;;5.97;;
5416;SDS011;2731;50.754;12.990;2023-10-09T11:58:59;15.93;;;7.32;;
5416;SDS011;2731;50.754;12.990;2023-10-09T12:01:37;11.00;;;5.80;;
5416;SDS011;2731;50.754;12.990;2023-10-09T12:04:09;19.52;;;7.53;;
5416;SDS011;2731;50.754;12.990;2023-10-09T12:06:38;13.77;;;6.38;;
5416;SDS011;2731;50.754;12.990;2023-10-09T12:09:09;23.00;;;7.18;;
5416;SDS011;2731;50.754;12.990;2023-10-09T12:11:42;14.50;;;6.57;;
5416;SDS011;2731;50.754;12.990;2023-10-09T12:14:17;14.75;;;7.13;;
5416;SDS011;2731;50.754;12.990;2023-10-09T12:16:53;13.60;;;7.55;;
5416;SDS011;2731;50.754;12.990;2023-10-09T12:19:20;14.60;;;6.90;;
5416;SDS011;2731;50.754;12.990;2023-10-09T12:21:52;13.50;;;6.28;;
5416;SDS011;2731;50.754;12.990;2023-10-09T12:24:20;12.73;;;6.70;;
5416;SDS011;2731;50.754;12.990;2023-10-09T12:26:47;16.10;;;6.13;;
5416;SDS011;2731;50.754;12.990;2023-10-09T12:29:19;11.52;;;6.10;;
5416;SDS011;2731;50.754;12.990;2023-10-09T12:31:46;16.38;;;6.70;;
5416;SDS011;2731;50.754;12.990;2023-10-09T12:34:14;13.95;;;7.18;;
5416;SDS011;2731;50.754;12.990;2023-10-09T12:37:01;11.38;;;6.55;;
5416;SDS011;2731;50.754;12.990;2023-10-09T12:39:28;12.95;;;6.32;;
5416;SDS011;2731;50.754;12.990;2023-10-09T12:42:01;13.77;;;6.25;;
5416;SDS011;2731;50.754;12.990;2023-10-09T12:44:38;15.15;;;7.25;;
5416;SDS011;2731;50.754;12.990;2023-10-09T12:47:08;13.60;;;6.55;;
5416;SDS011;2731;50.754;12.990;2023-10-09T12:49:37;17.73;;;6.75;;
5416;SDS011;2731;50.754;12.990;2023-10-09T12:52:07;12.82;;;6.95;;
5416;SDS011;2731;50.754;12.990;2023-10-09T12:54:42;12.85;;;6.40;;
5416;SDS011;2731;50.754;12.990;2023-10-09T12:57:11;15.23;;;6.35;;
5416;SDS011;2731;50.754;12.990;2023-10-09T12:59:43;13.40;;;7.25;;
5416;SDS011;2731;50.754;12.990;2023-10-09T13:02:13;14.05;;;7.07;;
5416;SDS011;2731;50.754;12.990;2023-10-09T13:05:02;17.60;;;7.10;;
5416;SDS011;2731;50.754;12.990;2023-10-09T13:07:30;11.98;;;6.32;;
5416;SDS011;2731;50.754;12.990;2023-10-09T13:09:57;12.80;;;6.22;;
5416;SDS011;2731;50.754;12.990;2023-10-09T13:12:38;9.80;;;5.85;;
5416;SDS011;2731;50.754;12.990;2023-10-09T13:15:08;14.75;;;5.90;;
5416;SDS011;2731;50.754;12.990;2023-10-09T13:17:37;9.63;;;6.00;;
5416;SDS011;2731;50.754;12.990;2023-10-09T13:20:05;13.88;;;6.20;;
5416;SDS011;2731;50.754;12.990;2023-10-09T13:22:38;8.73;;;5.82;;
5416;SDS011;2731;50.754;12.990;2023-10-09T13:25:10;10.63;;;6.00;;
5416;SDS011;2731;50.754;12.990;2023-10-09T13:28:00;11.13;;;6.45;;
5416;SDS011;2731;50.754;12.990;2023-10-09T13:30:28;14.05;;;6.38;;
5416;SDS011;2731;50.754;12.990;2023-10-09T13:32:54;13.20;;;6.25;;
5416;SDS011;2731;50.754;12.990;2023-10-09T13:35:22;10.98;;;6.38;;
5416;SDS011;2731;50.754;12.990;2023-10-09T13:38:05;14.93;;;6.68;;
5416;SDS011;2731;50.754;12.990;2023-10-09T13:40:35;13.20;;;6.22;;
5416;SDS011;2731;50.754;12.990;2023-10-09T13:43:04;14.93;;;6.18;;
5416;SDS011;2731;50.754;12.990;2023-10-09T13:45:37;10.65;;;6.18;;
5416;SDS011;2731;50.754;12.990;2023-10-09T13:48:23;13.38;;;7.15;;
5416;SDS011;2731;50.754;12.990;2023-10-09T13:51:10;12.23;;;6.03;;
5416;SDS011;2731;50.754;12.990;2023-10-09T13:54:04;13.30;;;7.05;;
5416;SDS011;2731;50.754;12.990;2023-10-09T13:56:52;14.93;;;6.53;;
5416;SDS011;2731;50.754;12.990;2023-10-09T13:59:38;12.73;;;6.65;;
5416;SDS011;2731;50.754;12.990;2023-10-09T14:02:30;14.82;;;7.30;;
5416;SDS011;2731;50.754;12.990;2023-10-09T14:04:58;13.90;;;6.65;;
5416;SDS011;2731;50.754;12.990;2023-10-09T14:07:45;12.43;;;7.10;;
5416;SDS011;2731;50.754;12.990;2023-10-09T14:10:31;12.77;;;7.38;;
5416;SDS011;2731;50.754;12.990;2023-10-09T14:13:24;12.73;;;7.20;;
5416;SDS011;2731;50.754;12.990;2023-10-09T14:16:16;13.77;;;7.55;;
5416;SDS011;2731;50.754;12.990;2023-10-09T14:19:16;13.35;;;7.72;;
5416;SDS011;2731;50.754;12.990;2023-10-09T14:22:05;13.48;;;7.43;;
5416;SDS011;2731;50.754;12.990;2023-10-09T14:24:33;15.80;;;8.20;;
5416;SDS011;2731;50.754;12.990;2023-10-09T14:27:05;12.73;;;7.55;;
5416;SDS011;2731;50.754;12.990;2023-10-09T14:29:37;14.15;;;7.15;;
5416;SDS011;2731;50.754;12.990;2023-10-09T14:32:05;14.35;;;7.97;;
5416;SDS011;2731;50.754;12.990;2023-10-09T14:34:32;12.75;;;7.20;;
5416;SDS011;2731;50.754;12.990;2023-10-09T14:37:30;16.65;;;7.32;;
5416;SDS011;2731;50.754;12.990;2023-10-09T14:40:15;11.80;;;7.55;;
5416;SDS011;2731;50.754;12.990;2023-10-09T14:43:15;13.10;;;7.30;;
5416;SDS011;2731;50.754;12.990;2023-10-09T14:46:06;13.68;;;7.50;;
5416;SDS011;2731;50.754;12.990;2023-10-09T14:48:56;13.05;;;7.38;;
5416;SDS011;2731;50.754;12.990;2023-10-09T14:51:31;14.25;;;7.15;;
5416;SDS011;2731;50.754;12.990;2023-10-09T14:53:58;14.60;;;7.68;;
5416;SDS011;2731;50.754;12.990;2023-10-09T14:56:28;13.20;;;7.90;;
5416;SDS011;2731;50.754;12.990;2023-10-09T14:58:57;11.82;;;7.28;;
5416;SDS011;2731;50.754;12.990;2023-10-09T15:04:01;14.13;;;8.02;;
5416;SDS011;2731;50.754;12.990;2023-10-09T15:06:28;16.48;;;8.60;;
5416;SDS011;2731;50.754;12.990;2023-10-09T15:09:01;12.90;;;7.10;;
5416;SDS011;2731;50.754;12.990;2023-10-09T15:11:56;14.73;;;7.70;;
5416;SDS011;2731;50.754;12.990;2023-10-09T15:14:23;15.02;;;8.02;;
5416;SDS011;2731;50.754;12.990;2023-10-09T15:17:08;12.57;;;7.57;;
5416;SDS011;2731;50.754;12.990;2023-10-09T15:19:54;14.93;;;8.30;;
5416;SDS011;2731;50.754;12.990;2023-10-09T15:22:41;15.70;;;8.60;;
5416;SDS011;2731;50.754;12.990;2023-10-09T15:25:25;16.98;;;8.40;;
5416;SDS011;2731;50.754;12.990;2023-10-09T15:27:51;15.27;;;8.15;;
5416;SDS011;2731;50.754;12.990;2023-10-09T15:30:22;14.13;;;8.27;;
5416;SDS011;2731;50.754;12.990;2023-10-09T15:32:48;16.05;;;8.18;;
5416;SDS011;2731;50.754;12.990;2023-10-09T15:35:14;16.45;;;8.80;;
5416;SDS011;2731;50.754;12.990;2023-10-09T15:37:43;13.18;;;7.45;;
5416;SDS011;2731;50.754;12.990;2023-10-09T15:40:34;14.98;;;8.38;;
5416;SDS011;2731;50.754;12.990;2023-10-09T15:43:23;14.07;;;8.30;;
5416;SDS011;2731;50.754;12.990;2023-10-09T15:46:12;13.32;;;8.77;;
5416;SDS011;2731;50.754;12.990;2023-10-09T15:49:01;19.05;;;10.27;;
5416;SDS011;2731;50.754;12.990;2023-10-09T15:51:48;13.15;;;8.38;;
5416;SDS011;2731;50.754;12.990;2023-10-09T15:54:32;13.63;;;8.00;;
5416;SDS011;2731;50.754;12.990;2023-10-09T15:56:59;14.32;;;8.77;;
5416;SDS011;2731;50.754;12.990;2023-10-09T15:59:25;16.65;;;9.60;;
5416;SDS011;2731;50.754;12.990;2023-10-09T16:01:53;16.23;;;8.95;;
5416;SDS011;2731;50.754;12.990;2023-10-09T16:04:19;10.73;;;7.43;;
5416;SDS011;2731;50.754;12.990;2023-10-09T16:06:45;13.40;;;7.20;;
5416;SDS011;2731;50.754;12.990;2023-10-09T16:09:11;14.45;;;7.35;;
5416;SDS011;2731;50.754;12.990;2023-10-09T16:11:46;14.52;;;9.15;;
5416;SDS011;2731;50.754;12.990;2023-10-09T16:14:14;13.05;;;7.65;;
5416;SDS011;2731;50.754;12.990;2023-10-09T16:16:41;14.50;;;7.78;;
5416;SDS011;2731;50.754;12.990;2023-10-09T16:19:08;14.85;;;9.02;;
5416;SDS011;2731;50.754;12.990;2023-10-09T16:21:37;13.05;;;8.38;;
5416;SDS011;2731;50.754;12.990;2023-10-09T16:24:06;14.32;;;8.32;;
5416;SDS011;2731;50.754;12.990;2023-10-09T16:26:35;14.15;;;7.95;;
5416;SDS011;2731;50.754;12.990;2023-10-09T16:29:06;11.27;;;7.10;;
5416;SDS011;2731;50.754;12.990;2023-10-09T16:31:35;9.48;;;5.93;;
5416;SDS011;2731;50.754;12.990;2023-10-09T16:34:02;11.73;;;7.72;;
5416;SDS011;2731;50.754;12.990;2023-10-09T16:36:30;11.40;;;7.57;;
5416;SDS011;2731;50.754;12.990;2023-10-09T16:38:58;10.20;;;7.00;;
5416;SDS011;2731;50.754;12.990;2023-10-09T16:41:27;10.73;;;7.80;;
5416;SDS011;2731;50.754;12.990;2023-10-09T16:43:53;15.25;;;9.00;;
5416;SDS011;2731;50.754;12.990;2023-10-09T16:46:21;11.10;;;8.50;;
5416;SDS011;2731;50.754;12.990;2023-10-09T16:48:50;15.38;;;7.82;;
5416;SDS011;2731;50.754;12.990;2023-10-09T16:51:20;18.80;;;10.68;;
5416;SDS011;2731;50.754;12.990;2023-10-09T16:53:48;15.70;;;9.23;;
5416;SDS011;2731;50.754;12.990;2023-10-09T16:56:20;16.55;;;8.32;;
5416;SDS011;2731;50.754;12.990;2023-10-09T16:58:46;16.60;;;9.35;;
5416;SDS011;2731;50.754;12.990;2023-10-09T17:01:19;14.43;;;8.90;;
5416;SDS011;2731;50.754;12.990;2023-10-09T17:03:46;13.43;;;8.68;;
5416;SDS011;2731;50.754;12.990;2023-10-09T17:06:20;14.10;;;8.77;;
5416;SDS011;2731;50.754;12.990;2023-10-09T17:08:46;12.93;;;8.18;;
5416;SDS011;2731;50.754;12.990;2023-10-09T17:11:13;12.48;;;8.13;;
5416;SDS011;2731;50.754;12.990;2023-10-09T17:13:42;12.70;;;7.65;;
5416;SDS011;2731;50.754;12.990;2023-10-09T17:16:15;14.38;;;9.82;;
5416;SDS011;2731;50.754;12.990;2023-10-09T17:18:47;13.98;;;8.98;;
5416;SDS011;2731;50.754;12.990;2023-10-09T17:21:15;16.10;;;9.68;;
5416;SDS011;2731;50.754;12.990;2023-10-09T17:23:50;16.25;;;9.35;;
5416;SDS011;2731;50.754;12.990;2023-10-09T17:26:19;16.70;;;8.70;;
5416;SDS011;2731;50.754;12.990;2023-10-09T17:28:56;16.75;;;8.63;;
5416;SDS011;2731;50.754;12.990;2023-10-09T17:31:22;12.73;;;8.60;;
5416;SDS011;2731;50.754;12.990;2023-10-09T17:33:51;14.55;;;8.05;;
5416;SDS011;2731;50.754;12.990;2023-10-09T17:36:20;14.80;;;9.50;;
5416;SDS011;2731;50.754;12.990;2023-10-09T17:38:46;18.77;;;10.77;;
5416;SDS011;2731;50.754;12.990;2023-10-09T17:41:15;15.60;;;9.48;;
5416;SDS011;2731;50.754;12.990;2023-10-09T17:43:42;13.82;;;8.82;;
5416;SDS011;2731;50.754;12.990;2023-10-09T17:46:10;16.45;;;10.07;;
5416;SDS011;2731;50.754;12.990;2023-10-09T17:48:37;14.13;;;9.40;;
5416;SDS011;2731;50.754;12.990;2023-10-09T17:51:05;16.55;;;10.07;;
5416;SDS011;2731;50.754;12.990;2023-10-09T17:53:35;14.73;;;9.48;;
5416;SDS011;2731;50.754;12.990;2023-10-09T17:56:04;15.35;;;10.18;;
5416;SDS011;2731;50.754;12.990;2023-10-09T17:58:30;14.45;;;9.73;;
5416;SDS011;2731;50.754;12.990;2023-10-09T18:00:56;16.55;;;10.57;;
5416;SDS011;2731;50.754;12.990;2023-10-09T18:03:24;15.20;;;10.00;;
5416;SDS011;2731;50.754;12.990;2023-10-09T18:05:55;17.33;;;10.23;;
5416;SDS011;2731;50.754;12.990;2023-10-09T18:08:22;20.92;;;11.15;;
5416;SDS011;2731;50.754;12.990;2023-10-09T18:10:54;18.80;;;11.75;;
5416;SDS011;2731;50.754;12.990;2023-10-09T18:13:21;19.48;;;10.85;;
5416;SDS011;2731;50.754;12.990;2023-10-09T18:15:50;16.98;;;10.43;;
5416;SDS011;2731;50.754;12.990;2023-10-09T18:18:19;14.93;;;10.23;;
5416;SDS011;2731;50.754;12.990;2023-10-09T18:20:45;22.35;;;10.80;;
5416;SDS011;2731;50.754;12.990;2023-10-09T18:23:14;15.63;;;10.60;;
5416;SDS011;2731;50.754;12.990;2023-10-09T18:25:43;15.10;;;10.13;;
5416;SDS011;2731;50.754;12.990;2023-10-09T18:28:09;18.80;;;12.32;;
5416;SDS011;2731;50.754;12.990;2023-10-09T18:30:36;15.77;;;10.25;;
5416;SDS011;2731;50.754;12.990;2023-10-09T18:33:05;21.65;;;12.35;;
5416;SDS011;2731;50.754;12.990;2023-10-09T18:35:33;14.10;;;10.25;;
5416;SDS011;2731;50.754;12.990;2023-10-09T18:37:59;21.63;;;10.85;;
5416;SDS011;2731;50.754;12.990;2023-10-09T18:40:30;27.23;;;19.98;;
5416;SDS011;2731;50.754;12.990;2023-10-09T18:43:00;22.13;;;13.40;;
5416;SDS011;2731;50.754;12.990;2023-10-09T18:45:30;16.95;;;11.18;;
5416;SDS011;2731;50.754;12.990;2023-10-09T18:48:00;17.98;;;12.68;;
5416;SDS011;2731;50.754;12.990;2023-10-09T18:50:28;21.38;;;12.68;;
5416;SDS011;2731;50.754;12.990;2023-10-09T18:53:01;18.30;;;11.25;;
5416;SDS011;2731;50.754;12.990;2023-10-09T18:55:29;16.77;;;11.38;;
5416;SDS011;2731;50.754;12.990;2023-10-09T18:58:00;31.55;;;12.35;;
5416;SDS011;2731;50.754;12.990;2023-10-09T19:00:27;15.05;;;10.60;;
5416;SDS011;2731;50.754;12.990;2023-10-09T19:02:57;17.40;;;10.50;;
5416;SDS011;2731;50.754;12.990;2023-10-09T19:05:25;17.60;;;11.63;;
5416;SDS011;2731;50.754;12.990;2023-10-09T19:07:51;16.40;;;11.32;;
5416;SDS011;2731;50.754;12.990;2023-10-09T19:10:20;20.27;;;11.43;;
5416;SDS011;2731;50.754;12.990;2023-10-09T19:12:47;16.95;;;10.65;;
5416;SDS011;2731;50.754;12.990;2023-10-09T19:15:13;17.25;;;10.95;;
5416;SDS011;2731;50.754;12.990;2023-10-09T19:17:40;16.98;;;9.68;;
5416;SDS011;2731;50.754;12.990;2023-10-09T19:20:06;19.02;;;11.00;;
5416;SDS011;2731;50.754;12.990;2023-10-09T19:22:39;15.65;;;9.90;;
5416;SDS011;2731;50.754;12.990;2023-10-09T19:25:09;15.50;;;10.50;;
5416;SDS011;2731;50.754;12.990;2023-10-09T19:27:52;14.95;;;9.05;;
5416;SDS011;2731;50.754;12.990;2023-10-09T19:30:21;18.73;;;10.13;;
5416;SDS011;2731;50.754;12.990;2023-10-09T19:32:49;15.60;;;10.48;;
5416;SDS011;2731;50.754;12.990;2023-10-09T19:35:15;14.02;;;10.02;;
5416;SDS011;2731;50.754;12.990;2023-10-09T19:37:46;14.38;;;10.73;;
5416;SDS011;2731;50.754;12.990;2023-10-09T19:40:12;19.67;;;10.48;;
5416;SDS011;2731;50.754;12.990;2023-10-09T19:42:39;17.73;;;10.63;;
5416;SDS011;2731;50.754;12.990;2023-10-09T19:45:05;17.77;;;10.35;;
5416;SDS011;2731;50.754;12.990;2023-10-09T19:47:35;16.95;;;10.02;;
5416;SDS011;2731;50.754;12.990;2023-10-09T19:50:01;13.50;;;10.00;;
5416;SDS011;2731;50.754;12.990;2023-10-09T19:52:29;15.10;;;9.73;;
5416;SDS011;2731;50.754;12.990;2023-10-09T19:55:00;16.85;;;10.40;;
5416;SDS011;2731;50.754;12.990;2023-10-09T19:57:27;15.63;;;9.90;;
5416;SDS011;2731;50.754;12.990;2023-10-09T19:59:56;15.15;;;10.70;;
5416;SDS011;2731;50.754;12.990;2023-10-09T20:02:22;15.45;;;10.35;;
5416;SDS011;2731;50.754;12.990;2023-10-09T20:04:48;22.33;;;11.60;;
5416;SDS011;2731;50.754;12.990;2023-10-09T20:07:18;18.10;;;10.88;;
5416;SDS011;2731;50.754;12.990;2023-10-09T20:09:44;16.10;;;12.07;;
5416;SDS011;2731;50.754;12.990;2023-10-09T20:12:12;18.50;;;12.35;;
5416;SDS011;2731;50.754;12.990;2023-10-09T20:14:38;22.75;;;14.57;;
5416;SDS011;2731;50.754;12.990;2023-10-09T20:17:04;24.77;;;13.63;;
5416;SDS011;2731;50.754;12.990;2023-10-09T20:19:31;26.25;;;17.30;;
5416;SDS011;2731;50.754;12.990;2023-10-09T20:21:57;22.38;;;14.90;;
5416;SDS011;2731;50.754;12.990;2023-10-09T20:24:24;19.67;;;13.30;;
5416;SDS011;2731;50.754;12.990;2023-10-09T20:26:51;21.20;;;14.13;;
5416;SDS011;2731;50.754;12.990;2023-10-09T20:29:17;19.70;;;13.60;;
5416;SDS011;2731;50.754;12.990;2023-10-09T20:31:44;19.35;;;14.00;;
5416;SDS011;2731;50.754;12.990;2023-10-09T20:34:13;24.50;;;16.50;;
5416;SDS011;2731;50.754;12.990;2023-10-09T20:36:41;24.10;;;16.25;;
5416;SDS011;2731;50.754;12.990;2023-10-09T20:39:08;25.63;;;15.93;;
5416;SDS011;2731;50.754;12.990;2023-10-09T20:41:37;26.00;;;15.40;;
5416;SDS011;2731;50.754;12.990;2023-10-09T20:44:04;25.20;;;15.98;;
5416;SDS011;2731;50.754;12.990;2023-10-09T20:46:32;24.33;;;16.70;;
5416;SDS011;2731;50.754;12.990;2023-10-09T20:48:58;29.73;;;18.55;;
5416;SDS011;2731;50.754;12.990;2023-10-09T20:51:25;27.17;;;19.23;;
5416;SDS011;2731;50.754;12.990;2023-10-09T20:53:51;30.92;;;18.75;;
5416;SDS011;2731;50.754;12.990;2023-10-09T20:56:17;25.33;;;17.92;;
5416;SDS011;2731;50.754;12.990;2023-10-09T20:58:43;29.73;;;17.88;;
5416;SDS011;2731;50.754;12.990;2023-10-09T21:01:11;32.60;;;19.73;;
5416;SDS011;2731;50.754;12.990;2023-10-09T21:03:41;28.77;;;18.33;;
5416;SDS011;2731;50.754;12.990;2023-10-09T21:06:09;25.92;;;17.95;;
5416;SDS011;2731;50.754;12.990;2023-10-09T21:08:37;32.97;;;19.92;;
5416;SDS011;2731;50.754;12.990;2023-10-09T21:11:03;30.17;;;19.67;;
5416;SDS011;2731;50.754;12.990;2023-10-09T21:13:30;32.67;;;19.73;;
5416;SDS011;2731;50.754;12.990;2023-10-09T21:15:56;29.17;;;21.52;;
5416;SDS011;2731;50.754;12.990;2023-10-09T21:18:23;30.08;;;20.00;;
5416;SDS011;2731;50.754;12.990;2023-10-09T21:20:50;32.83;;;21.48;;
5416;SDS011;2731;50.754;12.990;2023-10-09T21:23:16;26.52;;;20.25;;
5416;SDS011;2731;50.754;12.990;2023-10-09T21:25:43;30.90;;;20.42;;
5416;SDS011;2731;50.754;12.990;2023-10-09T21:28:09;30.20;;;20.48;;
5416;SDS011;2731;50.754;12.990;2023-10-09T21:30:35;28.98;;;19.35;;
5416;SDS011;2731;50.754;12.990;2023-10-09T21:33:05;25.20;;;16.85;;
5416;SDS011;2731;50.754;12.990;2023-10-09T21:35:32;29.63;;;19.23;;
5416;SDS011;2731;50.754;12.990;2023-10-09T21:38:02;26.48;;;19.10;;
5416;SDS011;2731;50.754;12.990;2023-10-09T21:40:30;30.05;;;19.33;;
5416;SDS011;2731;50.754;12.990;2023-10-09T21:43:00;27.75;;;18.42;;
5416;SDS011;2731;50.754;12.990;2023-10-09T21:45:32;24.13;;;18.00;;
5416;SDS011;2731;50.754;12.990;2023-10-09T21:48:01;34.58;;;20.92;;
5416;SDS011;2731;50.754;12.990;2023-10-09T21:50:27;25.00;;;18.13;;
5416;SDS011;2731;50.754;12.990;2023-10-09T21:52:56;25.92;;;17.92;;
5416;SDS011;2731;50.754;12.990;2023-10-09T21:55:22;29.75;;;19.13;;